sensor_id;sensor_type;location;lat;lon;timestamp;temperature;humidity
23633;DHT22;11993;48.748;9.166;2024-02-23T00:00:00;5.30;82.00
23633;DHT22;11993;48.748;9.166;2024-02-23T00:02:26;5.30;82.10
23633;DHT22;11993;48.748;9.166;2024-02-23T00:04:52;5.40;82.40
23633;DHT22;11993;48.748;9.166;2024-02-23T00:07:18;5.20;82.80
23633;DHT22;11993;48.748;9.166;2024-02-23T00:09:43;5.20;82.80
23633;DHT22;11993;48.748;9.166;2024-02-23T00:12:09;5.30;82.70
23633;DHT22;11993;48.748;9.166;2024-02-23T00:14:34;5.40;82.70
23633;DHT22;11993;48.748;9.166;2024-02-23T00:17:03;5.20;82.90
23633;DHT22;11993;48.748;9.166;2024-02-23T00:19:30;5.20;83.00
23633;DHT22;11993;48.748;9.166;2024-02-23T00:21:56;5.30;83.20
23633;DHT22;11993;48.748;9.166;2024-02-23T00:24:23;5.30;82.20
23633;DHT22;11993;48.748;9.166;2024-02-23T00:26:48;5.30;82.50
23633;DHT22;11993;48.748;9.166;2024-02-23T00:29:16;5.30;82.10
23633;DHT22;11993;48.748;9.166;2024-02-23T00:31:41;5.30;82.10
23633;DHT22;11993;48.748;9.166;2024-02-23T00:34:07;5.30;82.50
23633;DHT22;11993;48.748;9.166;2024-02-23T00:36:42;5.20;82.40
23633;DHT22;11993;48.748;9.166;2024-02-23T00:39:10;5.30;82.50
23633;DHT22;11993;48.748;9.166;2024-02-23T00:41:36;5.30;82.70
23633;DHT22;11993;48.748;9.166;2024-02-23T00:44:02;5.20;82.90
23633;DHT22;11993;48.748;9.166;2024-02-23T00:46:28;5.20;82.80
23633;DHT22;11993;48.748;9.166;2024-02-23T00:48:54;5.20;82.30
23633;DHT22;11993;48.748;9.166;2024-02-23T00:51:20;5.20;82.60
23633;DHT22;11993;48.748;9.166;2024-02-23T00:53:45;5.10;82.50
23633;DHT22;11993;48.748;9.166;2024-02-23T00:56:11;5.20;82.60
23633;DHT22;11993;48.748;9.166;2024-02-23T00:58:36;5.30;82.30
23633;DHT22;11993;48.748;9.166;2024-02-23T01:01:02;5.20;81.60
23633;DHT22;11993;48.748;9.166;2024-02-23T01:03:27;5.20;81.80
23633;DHT22;11993;48.748;9.166;2024-02-23T01:05:53;5.30;81.80
23633;DHT22;11993;48.748;9.166;2024-02-23T01:08:19;5.30;81.70
23633;DHT22;11993;48.748;9.166;2024-02-23T01:10:45;5.20;82.00
23633;DHT22;11993;48.748;9.166;2024-02-23T01:13:10;5.20;82.50
23633;DHT22;11993;48.748;9.166;2024-02-23T01:15:36;5.30;82.50
23633;DHT22;11993;48.748;9.166;2024-02-23T01:18:01;5.10;82.40
23633;DHT22;11993;48.748;9.166;2024-02-23T01:20:27;5.20;82.30
23633;DHT22;11993;48.748;9.166;2024-02-23T01:22:52;5.20;82.70
23633;DHT22;11993;48.748;9.166;2024-02-23T01:25:18;5.10;82.60
23633;DHT22;11993;48.748;9.166;2024-02-23T01:27:44;5.10;81.90
23633;DHT22;11993;48.748;9.166;2024-02-23T01:30:11;5.10;82.40
23633;DHT22;11993;48.748;9.166;2024-02-23T01:32:37;5.20;82.50
23633;DHT22;11993;48.748;9.166;2024-02-23T01:35:05;5.10;81.90
23633;DHT22;11993;48.748;9.166;2024-02-23T01:37:30;5.10;82.00
23633;DHT22;11993;48.748;9.166;2024-02-23T01:39:56;5.10;81.90
23633;DHT22;11993;48.748;9.166;2024-02-23T01:42:22;5.00;82.30
23633;DHT22;11993;48.748;9.166;2024-02-23T01:44:49;5.00;82.40
23633;DHT22;11993;48.748;9.166;2024-02-23T01:47:15;5.10;82.80
23633;DHT22;11993;48.748;9.166;2024-02-23T01:49:41;5.10;82.50
23633;DHT22;11993;48.748;9.166;2024-02-23T01:52:07;5.00;82.90
23633;DHT22;11993;48.748;9.166;2024-02-23T01:54:32;5.00;82.90
23633;DHT22;11993;48.748;9.166;2024-02-23T01:56:59;5.10;82.50
23633;DHT22;11993;48.748;9.166;2024-02-23T01:59:25;5.10;82.90
23633;DHT22;11993;48.748;9.166;2024-02-23T02:01:52;5.10;82.30
23633;DHT22;11993;48.748;9.166;2024-02-23T02:04:17;5.20;82.40
23633;DHT22;11993;48.748;9.166;2024-02-23T02:06:45;5.10;82.80
23633;DHT22;11993;48.748;9.166;2024-02-23T02:09:11;5.10;82.40
23633;DHT22;11993;48.748;9.166;2024-02-23T02:11:45;5.20;81.20
23633;DHT22;11993;48.748;9.166;2024-02-23T02:14:11;5.10;81.70
23633;DHT22;11993;48.748;9.166;2024-02-23T02:16:37;5.00;82.10
23633;DHT22;11993;48.748;9.166;2024-02-23T02:19:02;5.10;82.00
23633;DHT22;11993;48.748;9.166;2024-02-23T02:21:28;5.10;81.70
23633;DHT22;11993;48.748;9.166;2024-02-23T02:23:53;5.00;82.00
23633;DHT22;11993;48.748;9.166;2024-02-23T02:26:19;5.00;81.90
23633;DHT22;11993;48.748;9.166;2024-02-23T02:28:45;5.00;82.30
23633;DHT22;11993;48.748;9.166;2024-02-23T02:31:10;4.90;82.50
23633;DHT22;11993;48.748;9.166;2024-02-23T02:33:36;4.90;82.90
23633;DHT22;11993;48.748;9.166;2024-02-23T02:36:01;4.90;82.70
23633;DHT22;11993;48.748;9.166;2024-02-23T02:38:27;4.90;82.70
23633;DHT22;11993;48.748;9.166;2024-02-23T02:40:52;4.90;82.80
23633;DHT22;11993;48.748;9.166;2024-02-23T02:43:18;5.00;82.30
23633;DHT22;11993;48.748;9.166;2024-02-23T02:45:43;5.00;81.90
23633;DHT22;11993;48.748;9.166;2024-02-23T02:48:09;4.90;81.80
23633;DHT22;11993;48.748;9.166;2024-02-23T02:50:35;4.90;81.80
23633;DHT22;11993;48.748;9.166;2024-02-23T02:53:00;4.90;82.00
23633;DHT22;11993;48.748;9.166;2024-02-23T02:55:26;4.90;82.00
23633;DHT22;11993;48.748;9.166;2024-02-23T02:57:51;4.90;81.20
23633;DHT22;11993;48.748;9.166;2024-02-23T03:00:17;4.90;80.70
23633;DHT22;11993;48.748;9.166;2024-02-23T03:02:43;4.90;80.00
23633;DHT22;11993;48.748;9.166;2024-02-23T03:05:08;4.80;78.80
23633;DHT22;11993;48.748;9.166;2024-02-23T03:07:34;4.90;78.40
23633;DHT22;11993;48.748;9.166;2024-02-23T03:09:59;4.90;78.50
23633;DHT22;11993;48.748;9.166;2024-02-23T03:12:25;4.90;77.50
23633;DHT22;11993;48.748;9.166;2024-02-23T03:14:50;4.90;77.30
23633;DHT22;11993;48.748;9.166;2024-02-23T03:17:16;4.90;77.10
23633;DHT22;11993;48.748;9.166;2024-02-23T03:19:41;5.00;76.60
23633;DHT22;11993;48.748;9.166;2024-02-23T03:22:07;5.00;76.50
23633;DHT22;11993;48.748;9.166;2024-02-23T03:24:33;4.90;76.00
23633;DHT22;11993;48.748;9.166;2024-02-23T03:26:58;5.00;75.20
23633;DHT22;11993;48.748;9.166;2024-02-23T03:29:24;4.90;74.10
23633;DHT22;11993;48.748;9.166;2024-02-23T03:31:50;4.90;74.60
23633;DHT22;11993;48.748;9.166;2024-02-23T03:34:16;4.90;74.60
23633;DHT22;11993;48.748;9.166;2024-02-23T03:36:42;4.90;74.50
23633;DHT22;11993;48.748;9.166;2024-02-23T03:39:08;4.80;73.50
23633;DHT22;11993;48.748;9.166;2024-02-23T03:41:33;4.90;74.00
23633;DHT22;11993;48.748;9.166;2024-02-23T03:43:59;4.80;74.10
23633;DHT22;11993;48.748;9.166;2024-02-23T03:46:24;4.90;74.20
23633;DHT22;11993;48.748;9.166;2024-02-23T03:48:50;4.80;73.50
23633;DHT22;11993;48.748;9.166;2024-02-23T03:51:17;4.90;73.90
23633;DHT22;11993;48.748;9.166;2024-02-23T03:53:43;4.90;73.50
23633;DHT22;11993;48.748;9.166;2024-02-23T03:56:08;4.80;72.70
23633;DHT22;11993;48.748;9.166;2024-02-23T03:58:34;4.90;72.80
23633;DHT22;11993;48.748;9.166;2024-02-23T04:00:59;4.90;72.90
23633;DHT22;11993;48.748;9.166;2024-02-23T04:03:25;4.90;73.20
23633;DHT22;11993;48.748;9.166;2024-02-23T04:05:50;4.80;73.70
23633;DHT22;11993;48.748;9.166;2024-02-23T04:08:16;4.80;72.80
23633;DHT22;11993;48.748;9.166;2024-02-23T04:10:41;4.90;72.70
23633;DHT22;11993;48.748;9.166;2024-02-23T04:13:07;4.80;72.30
23633;DHT22;11993;48.748;9.166;2024-02-23T04:15:32;4.90;71.80
23633;DHT22;11993;48.748;9.166;2024-02-23T04:17:58;4.80;71.60
23633;DHT22;11993;48.748;9.166;2024-02-23T04:20:23;4.70;72.10
23633;DHT22;11993;48.748;9.166;2024-02-23T04:22:49;4.70;72.70
23633;DHT22;11993;48.748;9.166;2024-02-23T04:25:15;4.70;72.30
23633;DHT22;11993;48.748;9.166;2024-02-23T04:27:40;4.70;71.80
23633;DHT22;11993;48.748;9.166;2024-02-23T04:30:06;4.70;71.00
23633;DHT22;11993;48.748;9.166;2024-02-23T04:32:32;4.70;71.50
23633;DHT22;11993;48.748;9.166;2024-02-23T04:34:58;4.70;71.60
23633;DHT22;11993;48.748;9.166;2024-02-23T04:37:23;4.70;71.50
23633;DHT22;11993;48.748;9.166;2024-02-23T04:39:49;4.60;72.20
23633;DHT22;11993;48.748;9.166;2024-02-23T04:42:14;4.60;72.20
23633;DHT22;11993;48.748;9.166;2024-02-23T04:44:43;4.60;71.80
23633;DHT22;11993;48.748;9.166;2024-02-23T04:47:09;4.50;72.80
23633;DHT22;11993;48.748;9.166;2024-02-23T04:49:34;4.60;71.80
23633;DHT22;11993;48.748;9.166;2024-02-23T04:52:00;4.60;72.10
23633;DHT22;11993;48.748;9.166;2024-02-23T04:54:25;4.70;72.20
23633;DHT22;11993;48.748;9.166;2024-02-23T04:56:51;4.70;72.40
23633;DHT22;11993;48.748;9.166;2024-02-23T04:59:16;4.60;71.60
23633;DHT22;11993;48.748;9.166;2024-02-23T05:01:42;4.60;72.60
23633;DHT22;11993;48.748;9.166;2024-02-23T05:04:08;4.60;73.40
23633;DHT22;11993;48.748;9.166;2024-02-23T05:06:34;4.70;72.70
23633;DHT22;11993;48.748;9.166;2024-02-23T05:09:00;4.70;72.40
23633;DHT22;11993;48.748;9.166;2024-02-23T05:11:26;4.70;72.70
23633;DHT22;11993;48.748;9.166;2024-02-23T05:13:52;4.60;72.30
23633;DHT22;11993;48.748;9.166;2024-02-23T05:16:17;4.70;72.20
23633;DHT22;11993;48.748;9.166;2024-02-23T05:18:43;4.70;72.30
23633;DHT22;11993;48.748;9.166;2024-02-23T05:21:09;4.50;72.80
23633;DHT22;11993;48.748;9.166;2024-02-23T05:23:35;4.60;72.90
23633;DHT22;11993;48.748;9.166;2024-02-23T05:26:01;4.60;72.80
23633;DHT22;11993;48.748;9.166;2024-02-23T05:28:27;4.60;72.80
23633;DHT22;11993;48.748;9.166;2024-02-23T05:30:54;4.70;73.10
23633;DHT22;11993;48.748;9.166;2024-02-23T05:33:20;4.60;73.10
23633;DHT22;11993;48.748;9.166;2024-02-23T05:35:48;4.50;73.90
23633;DHT22;11993;48.748;9.166;2024-02-23T05:38:17;4.40;73.80
23633;DHT22;11993;48.748;9.166;2024-02-23T05:40:43;4.50;73.90
23633;DHT22;11993;48.748;9.166;2024-02-23T05:43:09;4.50;73.80
23633;DHT22;11993;48.748;9.166;2024-02-23T05:45:34;4.40;74.60
23633;DHT22;11993;48.748;9.166;2024-02-23T05:48:00;4.30;75.20
23633;DHT22;11993;48.748;9.166;2024-02-23T05:50:25;4.20;75.70
23633;DHT22;11993;48.748;9.166;2024-02-23T05:52:51;4.30;75.50
23633;DHT22;11993;48.748;9.166;2024-02-23T05:55:18;4.20;75.40
23633;DHT22;11993;48.748;9.166;2024-02-23T05:57:44;4.10;76.00
23633;DHT22;11993;48.748;9.166;2024-02-23T06:00:10;4.10;76.30
23633;DHT22;11993;48.748;9.166;2024-02-23T06:02:35;4.10;76.70
23633;DHT22;11993;48.748;9.166;2024-02-23T06:05:01;4.00;77.10
23633;DHT22;11993;48.748;9.166;2024-02-23T06:07:26;4.00;77.20
23633;DHT22;11993;48.748;9.166;2024-02-23T06:09:55;4.00;77.60
23633;DHT22;11993;48.748;9.166;2024-02-23T06:12:21;4.00;77.80
23633;DHT22;11993;48.748;9.166;2024-02-23T06:14:47;3.90;77.80
23633;DHT22;11993;48.748;9.166;2024-02-23T06:17:13;3.90;78.50
23633;DHT22;11993;48.748;9.166;2024-02-23T06:19:38;3.90;79.40
23633;DHT22;11993;48.748;9.166;2024-02-23T06:22:04;3.80;80.00
23633;DHT22;11993;48.748;9.166;2024-02-23T06:24:29;3.70;80.80
23633;DHT22;11993;48.748;9.166;2024-02-23T06:26:55;3.70;81.30
23633;DHT22;11993;48.748;9.166;2024-02-23T06:29:20;3.70;81.70
23633;DHT22;11993;48.748;9.166;2024-02-23T06:31:46;3.70;82.60
23633;DHT22;11993;48.748;9.166;2024-02-23T06:34:15;3.60;83.20
23633;DHT22;11993;48.748;9.166;2024-02-23T06:36:41;3.70;83.50
23633;DHT22;11993;48.748;9.166;2024-02-23T06:39:07;3.60;83.60
23633;DHT22;11993;48.748;9.166;2024-02-23T06:41:33;3.60;84.20
23633;DHT22;11993;48.748;9.166;2024-02-23T06:43:59;3.60;84.10
23633;DHT22;11993;48.748;9.166;2024-02-23T06:46:25;3.70;84.10
23633;DHT22;11993;48.748;9.166;2024-02-23T06:48:50;3.70;84.10
23633;DHT22;11993;48.748;9.166;2024-02-23T06:51:16;3.80;83.90
23633;DHT22;11993;48.748;9.166;2024-02-23T06:53:42;3.80;83.90
23633;DHT22;11993;48.748;9.166;2024-02-23T06:56:07;3.80;83.80
23633;DHT22;11993;48.748;9.166;2024-02-23T06:58:33;3.90;83.30
23633;DHT22;11993;48.748;9.166;2024-02-23T07:00:59;3.80;83.50
23633;DHT22;11993;48.748;9.166;2024-02-23T07:03:26;3.90;83.10
23633;DHT22;11993;48.748;9.166;2024-02-23T07:05:52;4.10;82.70
23633;DHT22;11993;48.748;9.166;2024-02-23T07:08:17;4.00;82.30
23633;DHT22;11993;48.748;9.166;2024-02-23T07:10:43;4.00;82.30
23633;DHT22;11993;48.748;9.166;2024-02-23T07:13:09;4.10;82.10
23633;DHT22;11993;48.748;9.166;2024-02-23T07:15:34;4.10;81.90
23633;DHT22;11993;48.748;9.166;2024-02-23T07:18:01;4.10;81.70
23633;DHT22;11993;48.748;9.166;2024-02-23T07:20:26;4.20;81.50
23633;DHT22;11993;48.748;9.166;2024-02-23T07:22:52;4.10;81.90
23633;DHT22;11993;48.748;9.166;2024-02-23T07:25:19;4.10;81.50
23633;DHT22;11993;48.748;9.166;2024-02-23T07:27:48;4.20;81.70
23633;DHT22;11993;48.748;9.166;2024-02-23T07:30:16;4.10;81.50
23633;DHT22;11993;48.748;9.166;2024-02-23T07:32:43;4.20;81.50
23633;DHT22;11993;48.748;9.166;2024-02-23T07:35:09;4.10;81.10
23633;DHT22;11993;48.748;9.166;2024-02-23T07:37:35;4.20;80.70
23633;DHT22;11993;48.748;9.166;2024-02-23T07:40:01;4.20;80.70
23633;DHT22;11993;48.748;9.166;2024-02-23T07:42:28;4.30;80.70
23633;DHT22;11993;48.748;9.166;2024-02-23T07:44:54;4.40;80.50
23633;DHT22;11993;48.748;9.166;2024-02-23T07:47:19;4.20;80.30
23633;DHT22;11993;48.748;9.166;2024-02-23T07:49:45;4.40;80.20
23633;DHT22;11993;48.748;9.166;2024-02-23T07:52:10;4.40;79.90
23633;DHT22;11993;48.748;9.166;2024-02-23T07:54:36;4.30;80.30
23633;DHT22;11993;48.748;9.166;2024-02-23T07:57:01;4.20;80.20
23633;DHT22;11993;48.748;9.166;2024-02-23T07:59:29;4.30;80.00
23633;DHT22;11993;48.748;9.166;2024-02-23T08:01:54;4.10;80.20
23633;DHT22;11993;48.748;9.166;2024-02-23T08:04:21;4.20;80.20
23633;DHT22;11993;48.748;9.166;2024-02-23T08:06:46;4.20;79.90
23633;DHT22;11993;48.748;9.166;2024-02-23T08:09:12;4.20;80.20
23633;DHT22;11993;48.748;9.166;2024-02-23T08:11:37;4.20;80.10
23633;DHT22;11993;48.748;9.166;2024-02-23T08:14:03;4.30;80.10
23633;DHT22;11993;48.748;9.166;2024-02-23T08:16:29;4.40;79.90
23633;DHT22;11993;48.748;9.166;2024-02-23T08:18:55;4.40;80.00
23633;DHT22;11993;48.748;9.166;2024-02-23T08:21:21;4.40;79.60
23633;DHT22;11993;48.748;9.166;2024-02-23T08:23:46;4.50;79.20
23633;DHT22;11993;48.748;9.166;2024-02-23T08:26:12;4.50;79.10
23633;DHT22;11993;48.748;9.166;2024-02-23T08:28:38;4.40;78.50
23633;DHT22;11993;48.748;9.166;2024-02-23T08:31:04;4.50;78.20
23633;DHT22;11993;48.748;9.166;2024-02-23T08:33:30;4.50;78.20
23633;DHT22;11993;48.748;9.166;2024-02-23T08:35:55;4.60;77.90
23633;DHT22;11993;48.748;9.166;2024-02-23T08:38:21;4.40;78.00
23633;DHT22;11993;48.748;9.166;2024-02-23T08:40:46;4.40;77.90
23633;DHT22;11993;48.748;9.166;2024-02-23T08:43:13;4.50;77.50
23633;DHT22;11993;48.748;9.166;2024-02-23T08:45:39;4.50;77.00
23633;DHT22;11993;48.748;9.166;2024-02-23T08:48:05;4.30;76.90
23633;DHT22;11993;48.748;9.166;2024-02-23T08:50:32;4.50;76.60
23633;DHT22;11993;48.748;9.166;2024-02-23T08:52:58;4.40;76.50
23633;DHT22;11993;48.748;9.166;2024-02-23T08:55:24;4.30;76.40
23633;DHT22;11993;48.748;9.166;2024-02-23T08:57:50;4.40;76.80
23633;DHT22;11993;48.748;9.166;2024-02-23T09:00:16;4.30;76.60
23633;DHT22;11993;48.748;9.166;2024-02-23T09:02:42;4.40;76.10
23633;DHT22;11993;48.748;9.166;2024-02-23T09:05:08;4.30;76.20
23633;DHT22;11993;48.748;9.166;2024-02-23T09:07:34;4.30;75.70
23633;DHT22;11993;48.748;9.166;2024-02-23T09:10:01;4.40;75.60
23633;DHT22;11993;48.748;9.166;2024-02-23T09:12:26;4.40;75.90
23633;DHT22;11993;48.748;9.166;2024-02-23T09:14:52;4.30;74.90
23633;DHT22;11993;48.748;9.166;2024-02-23T09:17:17;4.30;75.30
23633;DHT22;11993;48.748;9.166;2024-02-23T09:19:45;4.30;75.40
23633;DHT22;11993;48.748;9.166;2024-02-23T09:22:11;4.40;75.70
23633;DHT22;11993;48.748;9.166;2024-02-23T09:24:40;4.40;74.90
23633;DHT22;11993;48.748;9.166;2024-02-23T09:27:08;4.60;74.70
23633;DHT22;11993;48.748;9.166;2024-02-23T09:29:34;4.70;75.20
23633;DHT22;11993;48.748;9.166;2024-02-23T09:32:00;4.60;74.20
23633;DHT22;11993;48.748;9.166;2024-02-23T09:34:26;4.60;73.20
23633;DHT22;11993;48.748;9.166;2024-02-23T09:36:52;4.70;73.30
23633;DHT22;11993;48.748;9.166;2024-02-23T09:39:18;4.70;73.40
23633;DHT22;11993;48.748;9.166;2024-02-23T09:41:43;4.70;73.10
23633;DHT22;11993;48.748;9.166;2024-02-23T09:44:09;4.70;73.40
23633;DHT22;11993;48.748;9.166;2024-02-23T09:46:37;4.60;72.90
23633;DHT22;11993;48.748;9.166;2024-02-23T09:49:03;4.90;72.70
23633;DHT22;11993;48.748;9.166;2024-02-23T09:51:29;5.00;71.90
23633;DHT22;11993;48.748;9.166;2024-02-23T09:53:56;5.30;71.90
23633;DHT22;11993;48.748;9.166;2024-02-23T09:56:27;5.40;70.80
23633;DHT22;11993;48.748;9.166;2024-02-23T09:58:54;5.30;70.80
23633;DHT22;11993;48.748;9.166;2024-02-23T10:01:27;5.70;69.80
23633;DHT22;11993;48.748;9.166;2024-02-23T10:13:59;5.50;69.10
23633;DHT22;11993;48.748;9.166;2024-02-23T10:16:27;5.50;69.30
23633;DHT22;11993;48.748;9.166;2024-02-23T10:18:53;5.40;70.00
23633;DHT22;11993;48.748;9.166;2024-02-23T10:21:19;5.50;69.40
23633;DHT22;11993;48.748;9.166;2024-02-23T10:23:44;5.40;69.50
23633;DHT22;11993;48.748;9.166;2024-02-23T10:26:10;5.50;68.60
23633;DHT22;11993;48.748;9.166;2024-02-23T10:29:01;5.60;69.00
23633;DHT22;11993;48.748;9.166;2024-02-23T10:32:00;5.70;68.40
23633;DHT22;11993;48.748;9.166;2024-02-23T10:39:39;5.60;68.40
23633;DHT22;11993;48.748;9.166;2024-02-23T10:42:19;5.50;67.80
23633;DHT22;11993;48.748;9.166;2024-02-23T10:44:50;5.80;68.20
23633;DHT22;11993;48.748;9.166;2024-02-23T10:47:20;5.80;67.60
23633;DHT22;11993;48.748;9.166;2024-02-23T10:49:47;5.90;66.90
23633;DHT22;11993;48.748;9.166;2024-02-23T10:52:13;6.00;66.60
23633;DHT22;11993;48.748;9.166;2024-02-23T10:54:40;5.80;66.90
23633;DHT22;11993;48.748;9.166;2024-02-23T10:57:07;6.10;66.20
23633;DHT22;11993;48.748;9.166;2024-02-23T10:59:33;6.10;65.80
23633;DHT22;11993;48.748;9.166;2024-02-23T11:01:59;6.30;65.90
23633;DHT22;11993;48.748;9.166;2024-02-23T11:04:26;6.20;65.70
23633;DHT22;11993;48.748;9.166;2024-02-23T11:06:54;6.40;65.60
23633;DHT22;11993;48.748;9.166;2024-02-23T11:09:22;6.40;65.40
23633;DHT22;11993;48.748;9.166;2024-02-23T11:11:55;6.20;65.50
23633;DHT22;11993;48.748;9.166;2024-02-23T11:14:37;6.20;65.70
23633;DHT22;11993;48.748;9.166;2024-02-23T11:17:03;6.10;65.50
23633;DHT22;11993;48.748;9.166;2024-02-23T11:19:36;6.10;65.40
23633;DHT22;11993;48.748;9.166;2024-02-23T11:22:03;6.20;65.20
23633;DHT22;11993;48.748;9.166;2024-02-23T11:24:32;6.10;65.70
23633;DHT22;11993;48.748;9.166;2024-02-23T11:27:01;6.10;66.30
23633;DHT22;11993;48.748;9.166;2024-02-23T11:29:34;6.10;65.80
23633;DHT22;11993;48.748;9.166;2024-02-23T11:32:00;6.10;65.10
23633;DHT22;11993;48.748;9.166;2024-02-23T11:34:29;6.20;65.20
23633;DHT22;11993;48.748;9.166;2024-02-23T11:36:57;6.20;65.50
23633;DHT22;11993;48.748;9.166;2024-02-23T11:39:26;6.20;65.20
23633;DHT22;11993;48.748;9.166;2024-02-23T11:41:51;6.30;64.90
23633;DHT22;11993;48.748;9.166;2024-02-23T11:44:17;6.30;65.40
23633;DHT22;11993;48.748;9.166;2024-02-23T11:46:46;6.30;64.60
23633;DHT22;11993;48.748;9.166;2024-02-23T11:49:13;6.20;64.60
23633;DHT22;11993;48.748;9.166;2024-02-23T11:51:39;6.20;65.10
23633;DHT22;11993;48.748;9.166;2024-02-23T11:54:06;6.40;64.60
23633;DHT22;11993;48.748;9.166;2024-02-23T11:56:31;6.20;64.80
23633;DHT22;11993;48.748;9.166;2024-02-23T11:58:57;6.50;64.90
23633;DHT22;11993;48.748;9.166;2024-02-23T12:01:23;6.60;64.70
23633;DHT22;11993;48.748;9.166;2024-02-23T12:03:49;6.60;64.50
23633;DHT22;11993;48.748;9.166;2024-02-23T12:06:15;6.60;64.20
23633;DHT22;11993;48.748;9.166;2024-02-23T12:08:43;7.00;63.80
23633;DHT22;11993;48.748;9.166;2024-02-23T12:11:11;6.90;63.40
23633;DHT22;11993;48.748;9.166;2024-02-23T12:13:37;6.90;63.50
23633;DHT22;11993;48.748;9.166;2024-02-23T12:16:04;6.70;64.10
23633;DHT22;11993;48.748;9.166;2024-02-23T12:18:33;6.60;63.70
23633;DHT22;11993;48.748;9.166;2024-02-23T12:20:59;6.60;64.30
23633;DHT22;11993;48.748;9.166;2024-02-23T12:23:26;6.70;63.40
23633;DHT22;11993;48.748;9.166;2024-02-23T12:26:01;6.60;64.50
23633;DHT22;11993;48.748;9.166;2024-02-23T12:28:27;6.70;64.50
23633;DHT22;11993;48.748;9.166;2024-02-23T12:30:59;6.80;64.60
23633;DHT22;11993;48.748;9.166;2024-02-23T12:33:27;6.90;64.40
23633;DHT22;11993;48.748;9.166;2024-02-23T12:35:55;6.80;63.10
23633;DHT22;11993;48.748;9.166;2024-02-23T12:38:22;7.00;63.50
23633;DHT22;11993;48.748;9.166;2024-02-23T12:40:47;6.90;63.60
23633;DHT22;11993;48.748;9.166;2024-02-23T12:43:13;6.90;63.70
23633;DHT22;11993;48.748;9.166;2024-02-23T12:45:38;6.70;63.20
23633;DHT22;11993;48.748;9.166;2024-02-23T12:48:05;6.70;62.50
23633;DHT22;11993;48.748;9.166;2024-02-23T12:50:30;6.50;63.10
23633;DHT22;11993;48.748;9.166;2024-02-23T12:52:56;6.50;63.50
23633;DHT22;11993;48.748;9.166;2024-02-23T12:55:22;6.60;64.90
23633;DHT22;11993;48.748;9.166;2024-02-23T12:57:48;6.60;65.70
23633;DHT22;11993;48.748;9.166;2024-02-23T13:00:14;6.60;65.90
23633;DHT22;11993;48.748;9.166;2024-02-23T13:02:40;6.70;66.00
23633;DHT22;11993;48.748;9.166;2024-02-23T13:05:06;6.60;66.40
23633;DHT22;11993;48.748;9.166;2024-02-23T13:07:32;6.60;66.70
23633;DHT22;11993;48.748;9.166;2024-02-23T13:09:57;6.60;66.30
23633;DHT22;11993;48.748;9.166;2024-02-23T13:12:23;6.60;66.90
23633;DHT22;11993;48.748;9.166;2024-02-23T13:14:50;6.80;66.80
23633;DHT22;11993;48.748;9.166;2024-02-23T13:17:16;7.00;64.30
23633;DHT22;11993;48.748;9.166;2024-02-23T13:19:42;7.10;64.30
23633;DHT22;11993;48.748;9.166;2024-02-23T13:22:08;7.20;63.50
23633;DHT22;11993;48.748;9.166;2024-02-23T13:24:34;6.90;63.10
23633;DHT22;11993;48.748;9.166;2024-02-23T13:27:00;6.80;64.30
23633;DHT22;11993;48.748;9.166;2024-02-23T13:29:25;7.00;64.40
23633;DHT22;11993;48.748;9.166;2024-02-23T13:31:51;6.90;65.30
23633;DHT22;11993;48.748;9.166;2024-02-23T13:34:16;7.10;65.70
23633;DHT22;11993;48.748;9.166;2024-02-23T13:36:43;6.90;65.30
23633;DHT22;11993;48.748;9.166;2024-02-23T13:39:09;6.90;65.50
23633;DHT22;11993;48.748;9.166;2024-02-23T13:41:35;7.00;65.70
23633;DHT22;11993;48.748;9.166;2024-02-23T13:44:00;6.90;65.40
23633;DHT22;11993;48.748;9.166;2024-02-23T13:46:26;7.00;65.80
23633;DHT22;11993;48.748;9.166;2024-02-23T13:49:05;7.10;65.90
23633;DHT22;11993;48.748;9.166;2024-02-23T13:51:33;6.90;66.50
23633;DHT22;11993;48.748;9.166;2024-02-23T13:53:58;6.90;67.10
23633;DHT22;11993;48.748;9.166;2024-02-23T13:56:24;6.80;66.60
23633;DHT22;11993;48.748;9.166;2024-02-23T13:58:50;6.90;67.10
23633;DHT22;11993;48.748;9.166;2024-02-23T14:01:15;6.70;67.50
23633;DHT22;11993;48.748;9.166;2024-02-23T14:03:41;6.80;66.50
23633;DHT22;11993;48.748;9.166;2024-02-23T14:06:06;6.70;66.70
23633;DHT22;11993;48.748;9.166;2024-02-23T14:08:32;6.80;66.10
23633;DHT22;11993;48.748;9.166;2024-02-23T14:11:03;6.70;66.50
23633;DHT22;11993;48.748;9.166;2024-02-23T14:13:32;6.90;66.20
23633;DHT22;11993;48.748;9.166;2024-02-23T14:15:58;7.00;66.00
23633;DHT22;11993;48.748;9.166;2024-02-23T14:18:23;7.10;65.70
23633;DHT22;11993;48.748;9.166;2024-02-23T14:20:49;6.90;65.60
23633;DHT22;11993;48.748;9.166;2024-02-23T14:23:15;6.90;66.00
23633;DHT22;11993;48.748;9.166;2024-02-23T14:25:41;7.00;66.00
23633;DHT22;11993;48.748;9.166;2024-02-23T14:28:07;6.90;65.60
23633;DHT22;11993;48.748;9.166;2024-02-23T14:30:32;7.00;66.20
23633;DHT22;11993;48.748;9.166;2024-02-23T14:32:58;7.00;66.40
23633;DHT22;11993;48.748;9.166;2024-02-23T14:35:24;7.20;65.80
23633;DHT22;11993;48.748;9.166;2024-02-23T14:37:49;7.30;65.50
23633;DHT22;11993;48.748;9.166;2024-02-23T14:40:15;7.30;65.30
23633;DHT22;11993;48.748;9.166;2024-02-23T14:42:41;7.70;63.60
23633;DHT22;11993;48.748;9.166;2024-02-23T14:45:07;8.10;62.00
23633;DHT22;11993;48.748;9.166;2024-02-23T14:47:32;8.00;62.30
23633;DHT22;11993;48.748;9.166;2024-02-23T14:49:59;7.60;63.20
23633;DHT22;11993;48.748;9.166;2024-02-23T14:52:25;7.50;63.70
23633;DHT22;11993;48.748;9.166;2024-02-23T14:54:50;7.40;63.70
23633;DHT22;11993;48.748;9.166;2024-02-23T14:57:16;7.30;64.30
23633;DHT22;11993;48.748;9.166;2024-02-23T14:59:41;7.20;64.40
23633;DHT22;11993;48.748;9.166;2024-02-23T15:02:19;7.10;65.10
23633;DHT22;11993;48.748;9.166;2024-02-23T15:04:45;7.10;65.20
23633;DHT22;11993;48.748;9.166;2024-02-23T15:07:11;7.10;65.30
23633;DHT22;11993;48.748;9.166;2024-02-23T15:09:36;7.20;64.40
23633;DHT22;11993;48.748;9.166;2024-02-23T15:12:02;7.10;65.00
23633;DHT22;11993;48.748;9.166;2024-02-23T15:14:27;7.00;64.70
23633;DHT22;11993;48.748;9.166;2024-02-23T15:16:53;7.00;64.80
23633;DHT22;11993;48.748;9.166;2024-02-23T15:19:18;7.00;65.00
23633;DHT22;11993;48.748;9.166;2024-02-23T15:21:44;6.90;64.90
23633;DHT22;11993;48.748;9.166;2024-02-23T15:24:10;7.00;65.30
23633;DHT22;11993;48.748;9.166;2024-02-23T15:26:35;7.00;66.10
23633;DHT22;11993;48.748;9.166;2024-02-23T15:29:01;7.00;66.40
23633;DHT22;11993;48.748;9.166;2024-02-23T15:31:28;7.00;65.80
23633;DHT22;11993;48.748;9.166;2024-02-23T15:33:54;7.00;65.50
23633;DHT22;11993;48.748;9.166;2024-02-23T15:36:21;6.90;65.70
23633;DHT22;11993;48.748;9.166;2024-02-23T15:38:47;6.90;65.90
23633;DHT22;11993;48.748;9.166;2024-02-23T15:41:13;7.00;66.20
23633;DHT22;11993;48.748;9.166;2024-02-23T15:43:38;6.90;66.50
23633;DHT22;11993;48.748;9.166;2024-02-23T15:46:04;6.90;66.40
23633;DHT22;11993;48.748;9.166;2024-02-23T15:48:29;6.90;66.00
23633;DHT22;11993;48.748;9.166;2024-02-23T15:50:56;6.90;66.00
23633;DHT22;11993;48.748;9.166;2024-02-23T15:53:22;7.00;66.00